Time;durP1;ratioP1;P1;durP2;ratioP2;P2;SDS_P1;SDS_P2;PMS_P1;PMS_P2;Temp;Humidity;BMP_temperature;BMP_pressure;BME280_temperature;BME280_humidity;BME280_pressure;Samples;Min_cycle;Max_cycle;Signal;HPM_P1;HPM_P2
2022/12/08 00:02:21;;;;;;;1.40;1.20;;;20.30;71.10;;;;;;5035355;28;20187;-39
2022/12/08 00:10:18;;;;;;;2.40;0.90;;;20.30;71.20;;;;;;5025967;28;20328;-39
2022/12/08 00:12:45;;;;;;;1.50;0.73;;;20.20;71.10;;;;;;5045030;28;20191;-37
2022/12/08 00:15:13;;;;;;;1.02;0.80;;;20.20;71.50;;;;;;5045908;28;20218;-40
2022/12/08 00:17:40;;;;;;;0.90;0.80;;;20.30;71.20;;;;;;5044517;28;20652;-37
2022/12/08 00:20:08;;;;;;;1.33;1.05;;;20.30;71.00;;;;;;5034281;28;20223;-41
2022/12/08 00:22:34;;;;;;;1.50;1.08;;;20.30;71.20;;;;;;5041596;28;20203;-39
2022/12/08 00:25:01;;;;;;;1.00;0.80;;;20.30;71.20;;;;;;5047795;28;20195;-37
2022/12/08 00:27:28;;;;;;;0.95;0.70;;;20.20;71.10;;;;;;5051374;28;20548;-41
2022/12/08 00:29:54;;;;;;;1.38;1.00;;;20.20;71.10;;;;;;5039286;28;20199;-43
2022/12/08 00:32:22;;;;;;;1.20;1.10;;;20.20;71.20;;;;;;5044693;28;20199;-37
2022/12/08 00:34:49;;;;;;;1.35;0.80;;;20.30;71.20;;;;;;5047497;28;20202;-38
2022/12/08 00:37:16;;;;;;;1.20;0.88;;;20.30;71.60;;;;;;5041045;28;20214;-40
2022/12/08 00:39:42;;;;;;;1.45;0.90;;;20.30;72.40;;;;;;5043474;28;20560;-36
2022/12/08 00:42:12;;;;;;;1.05;0.95;;;20.30;72.80;;;;;;5042743;28;20203;-38
2022/12/08 00:44:39;;;;;;;1.40;0.90;;;20.40;73.30;;;;;;5047919;28;20198;-39
2022/12/08 00:47:05;;;;;;;2.55;1.00;;;20.40;73.60;;;;;;5032563;28;20225;-37
2022/12/08 00:49:33;;;;;;;1.10;0.80;;;20.40;73.80;;;;;;5039543;28;20659;-40
2022/12/08 00:52:00;;;;;;;1.35;1.00;;;20.40;73.60;;;;;;5043227;28;20198;-39
2022/12/08 00:54:27;;;;;;;1.30;0.90;;;20.30;73.50;;;;;;5045177;28;20719;-42
2022/12/08 00:56:54;;;;;;;4.75;0.95;;;20.30;73.20;;;;;;5031182;28;20202;-40
2022/12/08 00:59:20;;;;;;;1.23;0.93;;;20.30;73.10;;;;;;5043859;28;20218;-40
2022/12/08 01:01:48;;;;;;;1.17;0.90;;;20.30;73.00;;;;;;5033176;28;20690;-41
2022/12/08 01:04:17;;;;;;;2.30;0.88;;;20.30;73.10;;;;;;5043318;28;20211;-35
2022/12/08 01:06:45;;;;;;;1.98;1.08;;;20.20;73.00;;;;;;5034772;28;20211;-39
2022/12/08 01:09:56;;;;;;;2.47;0.90;;;20.20;73.00;;;;;;5027092;28;20203;-40
2022/12/08 01:12:23;;;;;;;1.27;0.80;;;20.30;72.90;;;;;;5039594;28;20203;-37
2022/12/08 01:14:50;;;;;;;1.50;1.05;;;20.30;72.90;;;;;;5047555;28;20198;-42
2022/12/08 01:17:17;;;;;;;1.42;0.90;;;20.20;72.80;;;;;;5040565;28;20655;-35
2022/12/08 01:19:43;;;;;;;2.08;0.85;;;20.20;72.80;;;;;;5045567;28;20563;-39
2022/12/08 01:22:11;;;;;;;1.63;1.10;;;20.30;72.70;;;;;;5041837;28;20367;-37
2022/12/08 01:24:38;;;;;;;1.15;0.90;;;20.20;72.70;;;;;;5036554;28;20204;-36
2022/12/08 01:27:05;;;;;;;1.17;1.08;;;20.20;72.60;;;;;;5039349;28;20539;-44
2022/12/08 01:29:31;;;;;;;1.45;1.00;;;20.30;72.60;;;;;;5038060;28;20192;-42
2022/12/08 01:31:58;;;;;;;1.08;0.95;;;20.30;73.40;;;;;;5034546;28;20207;-39
2022/12/08 01:34:25;;;;;;;3.28;1.10;;;20.30;72.60;;;;;;5040227;28;20203;-39
2022/12/08 01:36:51;;;;;;;1.30;0.90;;;20.20;72.60;;;;;;5038685;28;20202;-34
2022/12/08 01:39:19;;;;;;;1.30;0.95;;;20.20;72.70;;;;;;5046668;28;20713;-36
2022/12/08 01:41:47;;;;;;;1.10;0.93;;;20.20;73.10;;;;;;5043033;28;20195;-34
2022/12/08 01:44:52;;;;;;;1.00;0.82;;;20.20;72.80;;;;;;5038613;28;20199;-38
2022/12/08 01:47:19;;;;;;;3.08;1.10;;;20.20;72.60;;;;;;5031593;28;20205;-39
2022/12/08 01:49:46;;;;;;;2.55;1.10;;;20.20;72.50;;;;;;5038233;28;20223;-39
2022/12/08 01:52:18;;;;;;;1.00;0.85;;;20.30;72.60;;;;;;5029465;28;20204;-40
2022/12/08 01:54:48;;;;;;;0.93;0.70;;;20.20;72.60;;;;;;5038231;28;20211;-37
2022/12/08 01:57:20;;;;;;;1.10;0.70;;;20.20;72.80;;;;;;5038533;28;20207;-37
2022/12/08 01:59:54;;;;;;;1.10;0.93;;;20.20;72.70;;;;;;5049381;28;20226;-39
2022/12/08 02:02:21;;;;;;;1.23;0.90;;;20.20;72.70;;;;;;5045675;28;20203;-44
2022/12/08 02:04:48;;;;;;;1.27;0.90;;;20.20;72.80;;;;;;5035350;28;20238;-39
2022/12/08 02:07:16;;;;;;;1.08;0.80;;;20.20;72.80;;;;;;5043926;28;20313;-44
2022/12/08 02:09:44;;;;;;;1.55;0.90;;;20.20;72.60;;;;;;5051416;28;20202;-42
2022/12/08 02:12:12;;;;;;;1.15;0.95;;;20.20;72.80;;;;;;5035877;28;20290;-39
2022/12/08 02:14:39;;;;;;;1.08;0.75;;;20.20;72.80;;;;;;5038399;28;20203;-41
2022/12/08 02:17:16;;;;;;;1.08;0.90;;;20.20;72.70;;;;;;5040091;28;20191;-36
2022/12/08 02:20:13;;;;;;;1.05;0.95;;;20.20;72.70;;;;;;5052596;28;20226;-41
2022/12/08 02:22:47;;;;;;;1.00;0.90;;;20.20;72.70;;;;;;5044434;28;20195;-40
2022/12/08 02:25:20;;;;;;;1.05;0.95;;;20.20;72.60;;;;;;5043758;28;20206;-38
2022/12/08 02:27:56;;;;;;;0.90;0.77;;;20.20;72.70;;;;;;5041246;28;20204;-42
2022/12/08 02:30:25;;;;;;;1.08;0.98;;;20.20;73.50;;;;;;5037481;28;20213;-43
2022/12/08 02:33:31;;;;;;;1.50;1.00;;;20.20;72.80;;;;;;5041665;28;20195;-35
2022/12/08 02:36:06;;;;;;;1.10;0.80;;;20.20;72.70;;;;;;5034976;28;20203;-39
2022/12/08 02:38:45;;;;;;;1.20;0.95;;;20.20;72.80;;;;;;5043127;28;20217;-39
2022/12/08 02:41:20;;;;;;;1.00;0.80;;;20.20;72.60;;;;;;5036535;28;20206;-37
2022/12/08 02:43:49;;;;;;;3.85;0.90;;;20.20;72.80;;;;;;5039556;28;20199;-40
2022/12/08 02:46:21;;;;;;;1.00;0.88;;;20.20;72.80;;;;;;5032878;28;20225;-42
2022/12/08 02:48:50;;;;;;;2.00;0.85;;;20.20;72.70;;;;;;5042691;28;20207;-40
2022/12/08 02:51:18;;;;;;;2.97;1.10;;;20.20;72.80;;;;;;5045028;28;20198;-36
2022/12/08 02:53:46;;;;;;;1.00;0.80;;;20.20;72.90;;;;;;5032384;28;20202;-40
2022/12/08 02:56:24;;;;;;;1.10;0.90;;;20.20;72.80;;;;;;5040735;28;20199;-37
2022/12/08 02:59:08;;;;;;;0.95;0.73;;;20.20;72.90;;;;;;5045747;28;20582;-39
2022/12/08 03:01:52;;;;;;;1.00;0.70;;;20.20;72.90;;;;;;5034883;28;20210;-42
2022/12/08 03:04:27;;;;;;;1.10;0.80;;;20.20;73.00;;;;;;5036433;28;20226;-37
2022/12/08 03:06:59;;;;;;;1.10;0.80;;;20.20;73.70;;;;;;5038150;28;20203;-39
2022/12/08 03:09:35;;;;;;;1.27;1.10;;;20.20;72.90;;;;;;5042323;28;20206;-36
2022/12/08 03:12:06;;;;;;;2.20;1.27;;;20.10;72.90;;;;;;5042157;28;21367;-39
2022/12/08 03:14:34;;;;;;;1.30;0.90;;;20.20;73.10;;;;;;5041269;28;20214;-37
2022/12/08 03:17:03;;;;;;;1.10;0.88;;;20.20;72.90;;;;;;5036602;28;20203;-39
2022/12/08 03:19:34;;;;;;;2.00;0.90;;;20.20;73.00;;;;;;5039156;28;20234;-38
2022/12/08 03:22:05;;;;;;;1.10;0.90;;;20.20;72.90;;;;;;5045578;28;20198;-36
2022/12/08 03:24:37;;;;;;;1.33;0.70;;;20.20;73.00;;;;;;5048088;28;20191;-41
2022/12/08 03:27:07;;;;;;;1.20;1.02;;;20.20;73.00;;;;;;5036740;28;20206;-37
2022/12/08 03:29:34;;;;;;;1.10;0.82;;;20.10;72.80;;;;;;5040658;28;20203;-37
2022/12/08 03:32:07;;;;;;;1.17;0.90;;;20.20;73.00;;;;;;5031540;28;20335;-41
2022/12/08 03:34:35;;;;;;;1.02;0.80;;;20.20;72.90;;;;;;5040784;28;20195;-40
2022/12/08 03:37:04;;;;;;;1.38;1.00;;;20.20;72.90;;;;;;5043909;28;20191;-42
2022/12/08 03:39:30;;;;;;;1.00;0.88;;;20.20;72.90;;;;;;5037792;28;20223;-38
2022/12/08 03:41:57;;;;;;;1.52;0.70;;;20.20;73.00;;;;;;5037988;28;20203;-39
2022/12/08 03:44:24;;;;;;;1.00;0.80;;;20.20;72.90;;;;;;5037419;28;20199;-40
2022/12/08 03:46:54;;;;;;;1.00;0.88;;;20.20;72.80;;;;;;5036820;28;20241;-40
2022/12/08 03:49:20;;;;;;;0.95;0.85;;;20.20;72.80;;;;;;5039883;28;20195;-40
2022/12/08 03:51:47;;;;;;;1.10;1.00;;;20.20;72.90;;;;;;5042624;28;20667;-38
2022/12/08 03:54:15;;;;;;;1.00;0.80;;;20.20;72.90;;;;;;5035710;28;20202;-36
2022/12/08 03:56:42;;;;;;;1.10;0.85;;;20.20;72.80;;;;;;5044228;28;20191;-38
2022/12/08 03:59:10;;;;;;;1.35;0.80;;;20.20;72.90;;;;;;5037436;28;20229;-42
2022/12/08 04:01:36;;;;;;;1.00;0.80;;;20.10;72.70;;;;;;5040460;28;20582;-40
2022/12/08 04:04:03;;;;;;;1.08;0.80;;;20.20;72.80;;;;;;5045616;28;20199;-37
2022/12/08 04:06:30;;;;;;;1.00;0.80;;;20.20;72.60;;;;;;5041686;28;20591;-40
2022/12/08 04:08:57;;;;;;;1.30;1.20;;;20.20;72.60;;;;;;5049068;28;20206;-37
2022/12/08 04:11:25;;;;;;;1.00;0.80;;;20.20;72.70;;;;;;5036913;28;20195;-41
2022/12/08 04:13:51;;;;;;;1.35;1.10;;;20.20;72.60;;;;;;5032492;28;20203;-40
2022/12/08 04:16:21;;;;;;;1.10;0.90;;;20.10;72.60;;;;;;5041537;28;20191;-36
2022/12/08 04:18:48;;;;;;;1.20;1.00;;;20.10;72.60;;;;;;5050101;28;20195;-34
2022/12/08 04:21:15;;;;;;;1.10;0.98;;;20.00;72.60;;;;;;5040077;28;20195;-37
2022/12/08 04:23:42;;;;;;;1.20;0.90;;;20.00;72.80;;;;;;5033572;28;20682;-36
2022/12/08 04:26:09;;;;;;;1.10;0.93;;;20.00;72.90;;;;;;5032133;28;20200;-38
2022/12/08 04:28:37;;;;;;;1.02;0.90;;;20.00;73.10;;;;;;5042171;28;20195;-37
2022/12/08 04:31:04;;;;;;;0.90;0.73;;;20.00;73.10;;;;;;5029717;28;20205;-42
2022/12/08 04:33:31;;;;;;;1.20;1.05;;;20.00;73.00;;;;;;5046219;28;20187;-40
2022/12/08 04:35:58;;;;;;;1.20;1.00;;;20.00;73.00;;;;;;5034668;28;20198;-41
2022/12/08 04:38:24;;;;;;;1.17;1.00;;;20.00;73.00;;;;;;5041599;28;20196;-36
2022/12/08 04:40:51;;;;;;;0.90;0.70;;;20.00;73.00;;;;;;5039367;28;20230;-40
2022/12/08 04:43:18;;;;;;;0.90;0.70;;;20.00;73.10;;;;;;5033082;28;20198;-39
2022/12/08 04:45:46;;;;;;;0.95;0.75;;;20.00;73.00;;;;;;5045024;28;20420;-41
2022/12/08 04:48:13;;;;;;;1.15;1.00;;;20.10;73.10;;;;;;5044137;28;20201;-41
2022/12/08 04:50:41;;;;;;;1.10;1.00;;;20.10;72.90;;;;;;5030324;28;20202;-35
2022/12/08 04:53:10;;;;;;;1.00;0.90;;;20.20;73.00;;;;;;5038141;28;20214;-35
2022/12/08 04:55:40;;;;;;;2.20;0.80;;;20.10;73.50;;;;;;5037414;28;20198;-39
2022/12/08 04:58:06;;;;;;;0.90;0.80;;;20.20;72.80;;;;;;5048569;28;20544;-39
2022/12/08 05:00:33;;;;;;;1.45;1.00;;;20.20;72.80;;;;;;5040009;28;20214;-36
2022/12/08 05:03:01;;;;;;;1.20;0.95;;;20.20;72.70;;;;;;5039664;28;20555;-39
2022/12/08 05:05:28;;;;;;;1.10;0.88;;;20.20;72.70;;;;;;5041480;28;20203;-37
2022/12/08 05:07:55;;;;;;;0.98;0.80;;;20.20;72.70;;;;;;5043853;28;20199;-37
2022/12/08 05:10:22;;;;;;;1.00;0.80;;;20.20;72.60;;;;;;5043109;28;20196;-44
2022/12/08 05:12:48;;;;;;;1.25;1.00;;;20.10;72.70;;;;;;5037930;28;20662;-40
2022/12/08 05:15:15;;;;;;;1.15;0.90;;;20.10;72.50;;;;;;5038045;28;20203;-38
2022/12/08 05:17:42;;;;;;;1.25;0.90;;;20.20;72.50;;;;;;5038010;28;20206;-41
2022/12/08 05:20:11;;;;;;;1.13;0.85;;;20.10;72.50;;;;;;5041326;28;20238;-40
2022/12/08 05:22:38;;;;;;;1.10;0.80;;;20.20;72.50;;;;;;5045293;28;20191;-39
2022/12/08 05:25:05;;;;;;;1.00;0.82;;;20.20;72.40;;;;;;5045693;28;20191;-37
2022/12/08 05:27:32;;;;;;;1.10;1.00;;;20.20;72.30;;;;;;5048142;28;20198;-34
2022/12/08 05:29:58;;;;;;;0.93;0.75;;;20.10;72.30;;;;;;5048440;28;20666;-34
2022/12/08 05:32:25;;;;;;;1.17;1.05;;;20.10;72.40;;;;;;5043089;28;20206;-37
2022/12/08 05:34:52;;;;;;;1.10;1.00;;;20.10;72.30;;;;;;5048899;28;20552;-35
2022/12/08 05:37:20;;;;;;;0.90;0.80;;;20.10;72.30;;;;;;5048333;28;20238;-35
2022/12/08 05:39:46;;;;;;;2.13;0.82;;;20.10;72.30;;;;;;5045944;28;20687;-39
2022/12/08 05:42:13;;;;;;;1.30;0.90;;;20.00;72.20;;;;;;5039947;28;20209;-38
2022/12/08 05:44:40;;;;;;;1.30;1.00;;;20.00;72.40;;;;;;5035294;28;20663;-43
2022/12/08 05:47:07;;;;;;;1.00;0.90;;;20.00;72.80;;;;;;5039694;28;20210;-40
2022/12/08 05:49:34;;;;;;;1.05;0.90;;;20.00;72.40;;;;;;5046581;28;20674;-37
2022/12/08 05:52:00;;;;;;;1.30;0.77;;;20.00;72.40;;;;;;5038123;28;20685;-42
2022/12/08 05:54:29;;;;;;;1.05;0.90;;;20.00;72.50;;;;;;5046906;28;20199;-37
2022/12/08 05:56:55;;;;;;;1.15;0.93;;;20.00;72.50;;;;;;5044802;28;20191;-38
2022/12/08 05:59:22;;;;;;;1.10;1.00;;;20.00;72.60;;;;;;5039781;28;20219;-36
2022/12/08 06:01:49;;;;;;;0.98;0.70;;;20.00;72.60;;;;;;5049344;28;20199;-37
2022/12/08 06:04:15;;;;;;;1.23;0.90;;;20.00;72.50;;;;;;5047839;28;20187;-39
2022/12/08 06:06:42;;;;;;;1.13;0.90;;;20.00;72.70;;;;;;5047893;28;20196;-37
2022/12/08 06:09:09;;;;;;;1.13;1.02;;;20.00;72.60;;;;;;5051572;28;20210;-40
2022/12/08 06:11:37;;;;;;;1.00;0.80;;;20.00;72.60;;;;;;5047690;28;20187;-39
2022/12/08 06:14:04;;;;;;;1.00;0.70;;;20.00;72.60;;;;;;5036227;28;20195;-37
2022/12/08 06:16:31;;;;;;;1.10;0.90;;;20.00;72.60;;;;;;5034443;28;20687;-38
2022/12/08 06:18:59;;;;;;;1.30;1.02;;;20.00;72.70;;;;;;5057648;28;20205;-39
2022/12/08 06:21:25;;;;;;;1.17;0.80;;;20.00;72.70;;;;;;5045857;28;20223;-36
2022/12/08 06:23:53;;;;;;;1.05;0.80;;;20.00;72.70;;;;;;5031582;28;20207;-39
2022/12/08 06:26:20;;;;;;;1.00;0.80;;;20.00;72.80;;;;;;5045165;28;20667;-38
2022/12/08 06:28:49;;;;;;;0.90;0.80;;;19.90;72.70;;;;;;5043300;28;21949;-42
2022/12/08 06:31:17;;;;;;;0.90;0.70;;;19.90;72.80;;;;;;5042645;28;20725;-39
2022/12/08 06:33:45;;;;;;;1.00;0.85;;;20.00;72.70;;;;;;5039371;28;20242;-37
2022/12/08 06:36:14;;;;;;;1.33;0.80;;;20.00;72.70;;;;;;5040999;28;20196;-42
2022/12/08 06:38:41;;;;;;;0.90;0.70;;;20.00;72.90;;;;;;5042587;28;20191;-37
2022/12/08 06:41:08;;;;;;;1.10;0.80;;;20.00;73.00;;;;;;5041266;28;20216;-41
2022/12/08 06:43:35;;;;;;;1.30;0.90;;;20.00;73.10;;;;;;5039056;28;20207;-39
2022/12/08 06:46:06;;;;;;;0.90;0.75;;;20.00;73.30;;;;;;5037665;28;20195;-39
2022/12/08 06:48:32;;;;;;;1.00;0.80;;;20.00;73.40;;;;;;5042903;28;20207;-38
2022/12/08 06:51:06;;;;;;;0.90;0.80;;;19.90;73.20;;;;;;5035514;28;20191;-39
2022/12/08 06:53:33;;;;;;;1.55;0.80;;;20.00;73.30;;;;;;5033962;28;20549;-38
2022/12/08 06:55:59;;;;;;;1.05;0.70;;;19.90;73.10;;;;;;5041471;28;20698;-40
2022/12/08 06:58:26;;;;;;;1.10;0.90;;;19.90;73.10;;;;;;5042867;28;20200;-40
2022/12/08 07:00:52;;;;;;;1.00;0.70;;;20.00;73.00;;;;;;5028679;28;20230;-36
2022/12/08 07:03:21;;;;;;;1.23;1.00;;;20.00;73.10;;;;;;5037599;28;20204;-38
2022/12/08 07:05:47;;;;;;;1.00;0.80;;;19.90;73.10;;;;;;5045092;28;20206;-37
2022/12/08 07:08:14;;;;;;;1.00;0.90;;;19.90;73.00;;;;;;5044397;28;20195;-37
2022/12/08 07:10:41;;;;;;;1.15;0.90;;;19.90;73.00;;;;;;5041131;28;20199;-35
2022/12/08 07:13:08;;;;;;;1.05;0.85;;;19.90;73.70;;;;;;5045780;28;20204;-40
2022/12/08 07:15:34;;;;;;;1.48;1.00;;;20.00;72.90;;;;;;5034092;28;20203;-41
2022/12/08 07:18:01;;;;;;;1.17;1.08;;;19.90;72.80;;;;;;5040427;28;20195;-37
2022/12/08 07:20:29;;;;;;;1.00;0.90;;;20.00;72.80;;;;;;5044752;28;20226;-43
2022/12/08 07:22:56;;;;;;;1.23;1.13;;;20.00;72.80;;;;;;5045519;28;20206;-42
2022/12/08 07:25:22;;;;;;;1.10;0.80;;;19.90;72.70;;;;;;5040711;28;20220;-40
2022/12/08 07:27:50;;;;;;;1.25;1.00;;;20.00;72.70;;;;;;5047074;28;20214;-38
2022/12/08 07:30:17;;;;;;;1.20;1.00;;;20.00;72.70;;;;;;5041204;28;20196;-41
2022/12/08 07:32:44;;;;;;;1.23;0.80;;;20.00;72.70;;;;;;5045978;28;20711;-38
2022/12/08 07:35:11;;;;;;;1.15;0.82;;;19.90;72.60;;;;;;5044499;28;20206;-40
2022/12/08 07:37:39;;;;;;;1.15;0.75;;;19.90;73.30;;;;;;5051729;28;20199;-38
2022/12/08 07:40:08;;;;;;;1.10;0.90;;;19.90;72.60;;;;;;5039193;28;20222;-36
2022/12/08 07:42:34;;;;;;;1.13;1.00;;;19.90;72.60;;;;;;5030649;28;20707;-43
2022/12/08 07:45:01;;;;;;;1.10;1.00;;;19.90;72.70;;;;;;5041798;28;20577;-41
2022/12/08 07:47:28;;;;;;;1.10;1.00;;;19.90;72.70;;;;;;5036558;28;20206;-39
2022/12/08 07:49:55;;;;;;;1.45;1.08;;;19.90;72.70;;;;;;5035770;28;20194;-41
2022/12/08 07:52:22;;;;;;;1.10;1.00;;;19.80;72.70;;;;;;5046607;28;20286;-38
2022/12/08 07:54:50;;;;;;;1.00;0.80;;;19.90;73.50;;;;;;5048005;28;20281;-38
2022/12/08 07:57:17;;;;;;;0.90;0.80;;;19.90;72.70;;;;;;5050464;28;20211;-38
2022/12/08 07:59:43;;;;;;;1.20;0.90;;;19.90;72.70;;;;;;5049499;28;20210;-41
2022/12/08 08:02:16;;;;;;;1.10;0.90;;;19.80;72.70;;;;;;5044429;28;20203;-39
2022/12/08 08:04:43;;;;;;;1.00;0.80;;;19.90;72.60;;;;;;5040090;28;20190;-43
2022/12/08 08:07:10;;;;;;;1.00;0.90;;;19.90;72.60;;;;;;5045029;28;20194;-43
2022/12/08 08:09:37;;;;;;;1.10;1.00;;;19.90;72.60;;;;;;5046918;28;20195;-38
2022/12/08 08:12:05;;;;;;;2.10;0.90;;;20.00;72.80;;;;;;5041210;28;20566;-35
2022/12/08 08:14:32;;;;;;;1.48;1.13;;;20.00;72.80;;;;;;5035469;28;20192;-38
2022/12/08 08:16:59;;;;;;;3.72;1.00;;;19.90;73.10;;;;;;5031495;28;20667;-40
2022/12/08 08:19:25;;;;;;;2.35;0.85;;;19.90;73.40;;;;;;5038372;28;20587;-41
2022/12/08 08:21:52;;;;;;;1.40;0.82;;;19.90;73.50;;;;;;5040469;28;20650;-40
2022/12/08 08:24:20;;;;;;;1.00;0.88;;;19.90;73.40;;;;;;5042632;28;20651;-42
2022/12/08 08:26:47;;;;;;;1.15;0.90;;;19.90;73.30;;;;;;5026326;28;20223;-34
2022/12/08 08:29:15;;;;;;;1.00;0.90;;;20.00;73.50;;;;;;5024585;28;20188;-37
2022/12/08 08:31:41;;;;;;;1.20;1.10;;;20.00;73.70;;;;;;5030473;28;20202;-44
2022/12/08 08:34:08;;;;;;;1.00;0.90;;;20.00;73.90;;;;;;5028438;28;20196;-42
2022/12/08 08:36:35;;;;;;;1.00;0.90;;;20.00;74.00;;;;;;5029772;28;20206;-44
2022/12/08 08:39:02;;;;;;;1.13;0.88;;;20.00;74.10;;;;;;5028124;28;20202;-42
2022/12/08 08:41:29;;;;;;;1.08;0.98;;;20.00;74.20;;;;;;5023081;28;20223;-42
2022/12/08 08:43:56;;;;;;;1.35;1.00;;;20.00;74.00;;;;;;5025183;28;20207;-42
2022/12/08 08:46:24;;;;;;;1.45;1.00;;;20.00;74.00;;;;;;5027639;28;20197;-43
2022/12/08 08:48:50;;;;;;;1.20;1.08;;;20.00;74.90;;;;;;5027271;28;20808;-41
2022/12/08 08:51:17;;;;;;;1.90;0.90;;;20.00;74.00;;;;;;5027626;28;20199;-36
2022/12/08 08:53:44;;;;;;;0.93;0.82;;;20.00;74.00;;;;;;5028579;28;20199;-42
2022/12/08 08:56:12;;;;;;;2.25;0.98;;;20.00;74.00;;;;;;5024384;28;20685;-40
2022/12/08 08:58:39;;;;;;;1.50;1.00;;;20.00;73.90;;;;;;5027707;28;20203;-40
2022/12/08 09:01:06;;;;;;;1.17;1.08;;;20.00;73.80;;;;;;5026325;28;20226;-41
2022/12/08 09:03:34;;;;;;;1.30;1.00;;;20.00;73.70;;;;;;5025446;28;20226;-37
2022/12/08 09:06:01;;;;;;;1.20;1.10;;;20.00;73.60;;;;;;5021656;28;20208;-39
2022/12/08 09:08:27;;;;;;;1.20;1.00;;;20.00;73.50;;;;;;5030465;28;20199;-41
2022/12/08 09:10:54;;;;;;;1.05;0.95;;;20.00;73.40;;;;;;5032729;28;20201;-34
2022/12/08 09:13:22;;;;;;;1.25;1.00;;;20.00;73.40;;;;;;5035778;28;20197;-38
2022/12/08 09:15:49;;;;;;;3.83;1.00;;;20.00;73.20;;;;;;5035796;28;20281;-44
2022/12/08 09:18:15;;;;;;;1.05;0.88;;;20.00;73.20;;;;;;5046268;28;20198;-38
2022/12/08 09:20:43;;;;;;;1.90;1.73;;;20.00;73.20;;;;;;5035243;28;20222;-38
2022/12/08 09:23:10;;;;;;;1.25;1.15;;;20.00;73.20;;;;;;5040769;28;20689;-36
2022/12/08 09:25:37;;;;;;;0.95;0.80;;;20.00;73.20;;;;;;5049206;28;20202;-40
2022/12/08 09:28:04;;;;;;;1.17;1.00;;;20.00;73.10;;;;;;5040642;28;20202;-39
2022/12/08 09:30:30;;;;;;;1.10;0.88;;;20.00;73.10;;;;;;5031965;28;20199;-45
2022/12/08 09:32:57;;;;;;;1.10;0.90;;;20.00;73.00;;;;;;5036543;28;20199;-38
2022/12/08 09:35:24;;;;;;;1.02;0.93;;;20.00;72.90;;;;;;5031102;28;20199;-41
2022/12/08 09:37:52;;;;;;;1.10;0.95;;;20.00;72.90;;;;;;5032199;28;20202;-42
2022/12/08 09:40:21;;;;;;;1.70;0.88;;;20.00;72.80;;;;;;5028081;28;20208;-36
2022/12/08 09:42:51;;;;;;;1.10;1.00;;;20.00;72.80;;;;;;5032100;28;20203;-39
2022/12/08 09:45:20;;;;;;;1.02;0.90;;;20.00;72.80;;;;;;5035301;28;20556;-39
2022/12/08 09:47:54;;;;;;;1.15;1.00;;;20.00;72.80;;;;;;5046838;28;20206;-37
2022/12/08 09:50:30;;;;;;;1.05;0.95;;;20.00;72.90;;;;;;5042910;28;20190;-39
2022/12/08 09:53:02;;;;;;;1.20;1.00;;;19.90;72.80;;;;;;5032748;28;20194;-39
2022/12/08 09:55:41;;;;;;;1.20;0.93;;;19.90;72.80;;;;;;5042352;28;20682;-37
2022/12/08 09:58:19;;;;;;;1.20;0.80;;;20.00;72.90;;;;;;5050533;28;20191;-38
2022/12/08 10:00:45;;;;;;;1.17;0.82;;;19.90;72.80;;;;;;5039644;28;20634;-40
2022/12/08 10:03:13;;;;;;;1.02;0.93;;;19.90;72.80;;;;;;5029979;28;20196;-40
2022/12/08 10:05:44;;;;;;;1.00;0.82;;;19.90;72.80;;;;;;5041775;28;20191;-39
2022/12/08 10:08:19;;;;;;;2.80;0.90;;;19.90;73.10;;;;;;5047001;28;20195;-37
2022/12/08 10:10:55;;;;;;;0.95;0.80;;;20.00;73.30;;;;;;5044439;28;20203;-40
2022/12/08 10:13:29;;;;;;;1.10;0.80;;;19.90;73.20;;;;;;5035609;28;20196;-36
2022/12/08 10:16:05;;;;;;;2.10;0.90;;;19.90;73.20;;;;;;5034616;28;20206;-38
2022/12/08 10:18:34;;;;;;;1.10;0.98;;;19.90;73.30;;;;;;5029099;28;20203;-44
2022/12/08 10:21:16;;;;;;;1.83;0.90;;;19.90;73.30;;;;;;5028300;28;20241;-44
2022/12/08 10:23:46;;;;;;;1.20;1.10;;;19.90;73.20;;;;;;5037290;28;20245;-39
2022/12/08 10:26:17;;;;;;;1.00;0.90;;;19.90;73.30;;;;;;5035155;28;20192;-43
2022/12/08 10:28:44;;;;;;;0.90;0.73;;;20.00;73.30;;;;;;5047952;28;20202;-36
2022/12/08 10:31:15;;;;;;;1.15;1.05;;;20.00;73.30;;;;;;5038228;28;20582;-39
2022/12/08 10:33:43;;;;;;;1.10;1.00;;;20.00;73.30;;;;;;5038420;28;20207;-37
2022/12/08 10:36:10;;;;;;;1.10;0.85;;;20.00;73.20;;;;;;5039599;28;20199;-37
2022/12/08 10:38:39;;;;;;;1.00;0.75;;;20.00;73.20;;;;;;5045875;28;20195;-41
2022/12/08 10:41:12;;;;;;;1.00;0.80;;;20.00;73.00;;;;;;5038355;28;20211;-42
2022/12/08 10:43:43;;;;;;;1.42;1.30;;;20.00;73.10;;;;;;5038129;28;20210;-42
2022/12/08 10:46:12;;;;;;;0.90;0.80;;;20.00;73.10;;;;;;5034503;28;20226;-41
2022/12/08 10:48:51;;;;;;;1.10;0.95;;;20.00;73.10;;;;;;5040754;28;20199;-45
2022/12/08 10:51:28;;;;;;;0.90;0.80;;;20.00;73.10;;;;;;5036492;28;20195;-38
2022/12/08 10:53:55;;;;;;;1.20;0.90;;;20.00;73.10;;;;;;5043403;28;20252;-38
2022/12/08 10:56:26;;;;;;;1.20;1.10;;;20.00;73.10;;;;;;5042727;28;20203;-42
2022/12/08 10:59:06;;;;;;;1.00;0.80;;;20.00;73.00;;;;;;5033253;28;20731;-39
2022/12/08 11:01:37;;;;;;;0.93;0.70;;;20.00;72.90;;;;;;5039653;28;20222;-40
2022/12/08 11:04:06;;;;;;;1.13;1.00;;;20.00;72.90;;;;;;5038823;28;20570;-44
2022/12/08 11:06:36;;;;;;;1.08;0.80;;;20.00;73.70;;;;;;5040489;28;20200;-40
2022/12/08 11:09:06;;;;;;;1.00;0.70;;;20.00;72.80;;;;;;5048925;28;20575;-35
2022/12/08 11:11:47;;;;;;;0.90;0.73;;;20.00;72.80;;;;;;5040844;28;20208;-37
2022/12/08 11:14:21;;;;;;;1.20;1.00;;;20.00;72.70;;;;;;5027080;28;22422;-39
2022/12/08 11:16:50;;;;;;;1.00;0.80;;;19.90;72.70;;;;;;5041203;28;20186;-41
2022/12/08 11:19:18;;;;;;;1.10;0.90;;;20.00;72.60;;;;;;5045967;28;20215;-40
2022/12/08 11:21:45;;;;;;;1.02;0.93;;;20.00;72.60;;;;;;5043351;28;20239;-46
2022/12/08 11:24:23;;;;;;;1.17;1.08;;;20.00;72.70;;;;;;5045186;28;20194;-44
2022/12/08 11:26:54;;;;;;;1.20;0.90;;;20.00;72.70;;;;;;5045178;28;20195;-37
2022/12/08 11:29:21;;;;;;;0.90;0.80;;;19.90;72.60;;;;;;5052843;28;20198;-38
2022/12/08 11:31:53;;;;;;;2.22;1.80;;;19.90;72.80;;;;;;5038682;28;20622;-34
2022/12/08 11:34:23;;;;;;;2.65;2.45;;;19.80;66.80;;;;;;5050644;28;20199;-33
2022/12/08 11:36:53;;;;;;;3.00;2.20;;;18.90;62.20;;;;;;5047443;28;20198;-33
2022/12/08 11:39:21;;;;;;;3.58;2.47;;;18.40;60.90;;;;;;5048284;28;20241;-35
2022/12/08 11:41:48;;;;;;;5.25;2.97;;;18.20;60.30;;;;;;5038674;28;20219;-35
2022/12/08 11:44:27;;;;;;;3.05;2.35;;;17.80;59.70;;;;;;5038850;28;20563;-43
2022/12/08 11:46:58;;;;;;;1.70;1.60;;;17.80;63.20;;;;;;5027095;28;20207;-42
2022/12/08 11:49:33;;;;;;;1.40;1.30;;;18.60;64.60;;;;;;5040879;28;20191;-42
2022/12/08 11:52:10;;;;;;;4.18;1.70;;;19.30;64.80;;;;;;5031620;28;20597;-50
2022/12/08 11:54:46;;;;;;;1.77;1.20;;;19.80;64.50;;;;;;5035808;28;20226;-49
2022/12/08 11:57:15;;;;;;;1.20;0.95;;;20.10;64.80;;;;;;5033043;28;20278;-43
2022/12/08 11:59:48;;;;;;;1.88;1.40;;;20.30;65.00;;;;;;5037929;28;20198;-41
2022/12/08 12:02:18;;;;;;;2.40;1.23;;;20.50;65.30;;;;;;5032743;28;20223;-43
2022/12/08 12:04:49;;;;;;;1.75;1.25;;;20.70;65.50;;;;;;5035161;28;20203;-41
2022/12/08 12:07:37;;;;;;;1.10;0.90;;;20.80;65.80;;;;;;5045966;28;20284;-41
2022/12/08 12:10:31;;;;;;;1.73;1.30;;;20.90;66.00;;;;;;5043847;28;20199;-39
2022/12/08 12:13:08;;;;;;;3.28;1.20;;;20.90;66.00;;;;;;5036838;28;20208;-39
2022/12/08 12:16:04;;;;;;;2.58;1.52;;;21.00;66.40;;;;;;5028438;28;20191;-44
2022/12/08 12:18:35;;;;;;;2.15;1.20;;;21.10;66.40;;;;;;5041045;28;20576;-41
2022/12/08 12:21:09;;;;;;;2.72;1.95;;;21.20;66.70;;;;;;5038227;28;20210;-39
2022/12/08 12:23:40;;;;;;;4.47;2.00;;;21.10;67.30;;;;;;5039084;28;20199;-39
2022/12/08 12:26:09;;;;;;;2.40;2.03;;;21.00;69.00;;;;;;5035544;28;20214;-38
2022/12/08 12:28:43;;;;;;;2.30;1.60;;;21.00;69.00;;;;;;5047581;28;20557;-36
2022/12/08 12:31:16;;;;;;;4.18;1.83;;;21.00;69.00;;;;;;5044060;28;20194;-35
2022/12/08 12:33:45;;;;;;;2.67;1.98;;;21.00;69.60;;;;;;5040797;28;20196;-33
2022/12/08 12:36:14;;;;;;;1.90;1.40;;;21.00;68.90;;;;;;5040153;28;20199;-45
2022/12/08 12:39:02;;;;;;;2.75;1.80;;;21.00;68.90;;;;;;5040360;28;20191;-41
2022/12/08 12:41:34;;;;;;;3.03;1.77;;;20.90;69.60;;;;;;5039455;28;20219;-42
2022/12/08 12:44:22;;;;;;;1.88;1.67;;;20.80;69.90;;;;;;5046441;28;20476;-39
2022/12/08 12:47:01;;;;;;;3.33;1.65;;;20.90;69.70;;;;;;5038559;28;20199;-33
2022/12/08 12:50:13;;;;;;;4.45;1.70;;;20.90;69.40;;;;;;5042738;28;20192;-44
2022/12/08 12:52:47;;;;;;;2.13;1.60;;;20.90;69.40;;;;;;5042893;28;20207;-39
2022/12/08 12:55:22;;;;;;;2.25;1.50;;;20.80;69.30;;;;;;5037402;28;20730;-43
2022/12/08 12:57:51;;;;;;;4.53;1.77;;;20.80;69.30;;;;;;5040543;28;20191;-39
2022/12/08 13:00:20;;;;;;;2.45;1.70;;;20.80;69.30;;;;;;5051528;28;20942;-38
2022/12/08 13:02:49;;;;;;;1.73;1.50;;;20.80;69.30;;;;;;5042712;28;20226;-39
2022/12/08 13:05:19;;;;;;;1.53;1.30;;;20.80;69.30;;;;;;5042226;28;20962;-43
2022/12/08 13:07:52;;;;;;;3.25;2.00;;;20.70;69.30;;;;;;5046747;28;20466;-38